KIRS

Details ICAO KIRS
Name KIRSCH MUNI
Region United States
Timezone America/Detroit (UTC-5.0)
Plans Departing 1
Arriving 1
Stats Elevation 925 ft / 282 m (AMSL)
Location 41.813372° -85.438457°
Runways 2
Magnetic Variation 5.635° W
Sunrise 2017-12-16 13:04:25 UTC / 2017-12-16 08:04:25 Local
Sunset 2017-12-16 22:13:21 UTC / 2017-12-16 17:13:21 Local
Advertisement - Login to hide

Runways

ID Width Length Bearing (true) Bearing (mag) Surface Threshold Offset Overrun Length
06 75 ft / 23 m 3,417 ft / 1,041 m 58.58° 64.21° Asphalt 0 ft / 0 m 432 ft / 132 m
18 100 ft / 30 m 5,208 ft / 1,587 m 179.70° 185.33° Asphalt 0 ft / 0 m 0 ft / 0 m
24 75 ft / 23 m 3,417 ft / 1,041 m 238.58° 244.21° Asphalt 0 ft / 0 m 600 ft / 183 m
36 100 ft / 30 m 5,208 ft / 1,587 m 359.70° 5.33° Asphalt 0 ft / 0 m 0 ft / 0 m

Map

Weather


0- 5 10 15 20 25 30 35+ Temperature / ° C

Clouds and Precipitation
Forecast for 2017-12-17 06:00 UTC. Updated 2 hours ago

Ground ~20,000 ft ~40,000 ft Winds

METAR

KIRS 170235Z AUTO 11006KT 10SM CLR 01/M03 A3006 RMK AO2 T00081030

TAF

Not found

Frequencies

Recorded 121.32 MHz AWOS 3
Clearance 133.55 MHz CLNC DEL
Unicom 123.05 MHz CTAF/UNICOM
Approach 121.20 MHz KALAMAZOO APP/DEP
Warning: Do not use this data for real-world aviation or navigation. No guarantee of current accuracy is given.